createdAt,value
2018-07-09T00:02:48.051Z,2.77
2018-07-09T00:07:42.352Z,2.83
2018-07-09T00:12:36.687Z,2.83
2018-07-09T00:17:31.415Z,2.87
2018-07-09T00:22:26.237Z,2.93
2018-07-09T00:27:20.945Z,3.03
2018-07-09T00:32:15.647Z,2.93
2018-07-09T00:37:10.256Z,2.87
2018-07-09T00:42:05.055Z,3.63
2018-07-09T00:46:59.852Z,3.07
2018-07-09T00:51:54.583Z,3.00
2018-07-09T00:56:49.422Z,3.17
2018-07-09T01:01:44.117Z,2.87
2018-07-09T01:06:38.836Z,3.00
2018-07-09T01:11:46.316Z,3.07
2018-07-09T01:16:40.998Z,3.07
2018-07-09T01:21:35.748Z,3.10
2018-07-09T01:26:30.915Z,3.40
2018-07-09T01:31:25.643Z,3.30
2018-07-09T01:36:20.824Z,2.83
2018-07-09T01:41:15.526Z,3.40
2018-07-09T01:46:10.228Z,2.80
2018-07-09T01:51:05.022Z,3.17
2018-07-09T01:55:59.699Z,3.20
2018-07-09T02:00:54.391Z,2.70
2018-07-09T02:05:49.086Z,3.40
2018-07-09T02:10:43.786Z,3.40
2018-07-09T02:15:38.515Z,3.00
2018-07-09T02:20:33.221Z,2.87
2018-07-09T02:25:27.985Z,2.93
2018-07-09T02:30:22.634Z,2.93
2018-07-09T02:35:17.285Z,2.90
2018-07-09T02:40:11.938Z,2.77
2018-07-09T02:45:06.938Z,3.20
2018-07-09T02:50:01.604Z,3.03
2018-07-09T02:54:56.325Z,2.80
2018-07-09T02:59:50.995Z,2.80
2018-07-09T03:04:45.665Z,2.80
2018-07-09T03:09:40.309Z,2.90
2018-07-09T03:14:34.969Z,2.90
2018-07-09T03:19:29.689Z,2.57
2018-07-09T03:24:24.386Z,2.73
2018-07-09T03:29:19.026Z,2.87
2018-07-09T03:34:13.663Z,2.90
2018-07-09T03:39:08.268Z,3.10
2018-07-09T03:44:02.872Z,2.90
2018-07-09T03:48:57.525Z,3.07
2018-07-09T03:53:52.295Z,2.73
2018-07-09T03:58:46.917Z,2.73
2018-07-09T04:03:41.595Z,2.87
2018-07-09T04:08:36.217Z,3.00
2018-07-09T04:13:30.869Z,2.57
2018-07-09T04:18:26.092Z,3.10
2018-07-09T04:23:20.756Z,2.50
2018-07-09T04:28:15.562Z,2.37
2018-07-09T04:33:10.140Z,2.60
2018-07-09T04:38:04.774Z,2.67
2018-07-09T04:42:59.456Z,2.37
2018-07-09T04:47:54.247Z,2.57
2018-07-09T04:52:48.860Z,2.70
2018-07-09T04:57:43.547Z,2.63
2018-07-09T05:02:38.211Z,2.53
2018-07-09T05:07:32.846Z,2.57
2018-07-09T05:12:27.514Z,2.80
2018-07-09T05:17:22.170Z,2.27
2018-07-09T05:22:16.870Z,2.20
2018-07-09T05:27:11.516Z,2.17
2018-07-09T05:32:06.233Z,2.50
2018-07-09T05:37:00.922Z,2.20
2018-07-09T05:41:55.900Z,2.20
2018-07-09T05:46:51.537Z,2.40
2018-07-09T05:51:46.270Z,2.10
2018-07-09T05:56:41.039Z,2.07
2018-07-09T06:01:35.813Z,2.23
2018-07-09T06:06:30.520Z,2.10
2018-07-09T06:11:25.411Z,2.00
2018-07-09T06:16:20.054Z,1.90
2018-07-09T06:21:14.733Z,2.10
2018-07-09T06:26:09.445Z,2.20
2018-07-09T06:31:04.007Z,2.00
2018-07-09T06:41:02.636Z,2.00
2018-07-09T06:45:57.671Z,1.90
2018-07-09T06:50:53.755Z,1.90
2018-07-09T06:55:48.624Z,1.80
2018-07-09T07:01:28.653Z,2.00
2018-07-09T07:06:23.425Z,2.00
2018-07-09T07:11:18.213Z,1.97
2018-07-09T07:16:13.188Z,1.93
2018-07-09T07:21:08.168Z,1.97
2018-07-09T07:26:02.989Z,1.80
2018-07-09T07:30:57.736Z,1.93
2018-07-09T07:35:53.263Z,2.10
2018-07-09T07:40:48.190Z,1.90
2018-07-09T07:46:17.379Z,1.60
2018-07-09T07:51:16.449Z,1.95
2018-07-09T07:56:11.817Z,2.05
2018-07-09T08:01:07.046Z,1.70
2018-07-09T08:06:02.087Z,1.85
2018-07-09T08:10:57.197Z,1.80
2018-07-09T08:15:52.407Z,2.08
2018-07-09T08:20:47.450Z,1.87
2018-07-09T08:25:42.743Z,1.77
2018-07-09T08:30:37.613Z,1.72
2018-07-09T08:35:32.735Z,2.22
2018-07-09T08:40:27.776Z,1.70
2018-07-09T08:45:23.021Z,2.20
2018-07-09T08:50:20.983Z,1.77
2018-07-09T08:55:15.885Z,1.70
2018-07-09T09:00:12.595Z,2.00
2018-07-09T09:05:07.503Z,1.60
2018-07-09T09:10:02.389Z,1.75
2018-07-09T09:14:57.435Z,1.80
2018-07-09T09:19:52.318Z,1.80
2018-07-09T09:24:47.464Z,1.87
2018-07-09T09:29:43.237Z,1.72
2018-07-09T09:34:37.778Z,1.50
2018-07-09T09:39:32.901Z,1.60
2018-07-09T09:44:31.362Z,1.65
2018-07-09T09:49:26.691Z,1.67
2018-07-09T09:54:21.704Z,1.40
2018-07-09T09:59:16.841Z,1.47
2018-07-09T10:04:12.094Z,1.98
2018-07-09T10:09:08.203Z,1.85
2018-07-09T10:14:03.457Z,1.77
2018-07-09T10:18:58.750Z,1.87
2018-07-09T10:23:53.531Z,1.60
2018-07-09T10:28:48.509Z,1.70
2018-07-09T10:33:43.391Z,1.80
2018-07-09T10:38:38.308Z,1.60
2018-07-09T10:43:35.105Z,1.47
2018-07-09T10:48:30.080Z,1.60
2018-07-09T10:53:24.953Z,1.85
2018-07-09T10:58:20.036Z,1.25
2018-07-09T11:03:17.794Z,1.72
2018-07-09T11:08:12.599Z,1.62
2018-07-09T11:13:07.358Z,1.80
2018-07-09T11:18:04.811Z,2.00
2018-07-09T11:22:59.715Z,1.55
2018-07-09T11:28:00.871Z,1.77
2018-07-09T11:32:55.843Z,1.80
2018-07-09T11:37:50.681Z,1.65
2018-07-09T11:42:45.637Z,1.80
2018-07-09T11:47:41.360Z,1.80
2018-07-09T11:52:36.314Z,1.90
2018-07-09T11:57:34.343Z,1.50
2018-07-09T12:02:29.159Z,1.90
2018-07-09T12:07:24.072Z,1.70
2018-07-09T12:12:19.076Z,1.77
2018-07-09T12:17:13.915Z,2.00
2018-07-09T12:22:08.833Z,1.70
2018-07-09T12:27:03.703Z,1.85
2018-07-09T12:31:58.579Z,1.80
2018-07-09T12:36:53.389Z,1.77
2018-07-09T12:41:48.267Z,1.50
2018-07-09T12:46:43.701Z,1.85
2018-07-09T12:51:40.343Z,1.50
2018-07-09T12:56:35.822Z,1.65
2018-07-09T13:01:30.913Z,1.62
2018-07-09T13:06:25.948Z,1.80
2018-07-09T13:11:20.934Z,1.70
2018-07-09T13:16:15.929Z,1.70
2018-07-09T13:21:10.969Z,1.52
2018-07-09T13:26:06.134Z,1.75
2018-07-09T13:31:02.339Z,1.77
2018-07-09T13:35:57.389Z,1.95
2018-07-09T13:40:52.285Z,2.15
2018-07-09T13:51:10.557Z,1.85
2018-07-09T13:56:05.819Z,1.75
2018-07-09T14:01:00.840Z,1.80
2018-07-09T14:05:55.948Z,1.60
2018-07-09T14:11:13.203Z,1.90
2018-07-09T14:16:09.144Z,1.90
2018-07-09T14:21:06.536Z,1.60
2018-07-09T14:26:01.508Z,1.60
2018-07-09T14:30:56.383Z,1.70
2018-07-09T14:35:51.260Z,1.60
2018-07-09T14:40:46.493Z,1.52
2018-07-09T14:51:00.057Z,1.75
2018-07-09T14:55:55.488Z,1.57
2018-07-09T15:00:51.033Z,2.10
2018-07-09T15:05:47.245Z,1.60
2018-07-09T15:10:43.611Z,1.60
2018-07-09T15:15:41.921Z,1.67
2018-07-09T15:20:37.042Z,1.60
2018-07-09T15:25:32.609Z,1.70
2018-07-09T15:30:29.710Z,1.70
2018-07-09T15:35:24.973Z,1.70
2018-07-09T15:40:20.025Z,1.50
2018-07-09T15:54:38.855Z,1.70
2018-07-09T15:59:34.147Z,1.70
2018-07-09T16:04:31.187Z,1.70
2018-07-09T16:09:31.075Z,1.50
2018-07-09T16:14:56.678Z,1.27
2018-07-09T16:20:59.427Z,1.82
2018-07-09T16:39:08.018Z,1.50
2018-07-09T16:44:25.368Z,1.20
2018-07-09T16:55:08.461Z,1.85
2018-07-09T17:05:58.632Z,1.57
2018-07-09T17:11:24.710Z,1.47
2018-07-09T17:34:47.381Z,1.47
2018-07-09T17:39:42.589Z,1.50
2018-07-09T17:44:37.537Z,1.57
2018-07-09T17:49:32.425Z,1.60
2018-07-09T17:54:27.654Z,1.60
2018-07-09T17:59:22.469Z,1.60
2018-07-09T18:04:22.456Z,1.40
2018-07-09T18:09:17.859Z,1.50
2018-07-09T18:14:12.863Z,2.02
2018-07-09T18:19:17.500Z,2.15
2018-07-09T18:24:19.942Z,1.70
2018-07-09T18:29:15.199Z,1.85
2018-07-09T18:34:11.855Z,2.10
2018-07-09T18:39:12.278Z,1.67
2018-07-09T18:44:09.478Z,1.72
2018-07-09T18:54:46.727Z,2.27
2018-07-09T18:59:41.401Z,2.12
2018-07-09T19:04:36.136Z,2.33
2018-07-09T19:09:31.203Z,2.37
2018-07-09T19:14:34.426Z,2.20
2018-07-09T19:19:45.763Z,2.60
2018-07-09T19:24:38.576Z,2.75
2018-07-09T19:29:31.420Z,2.52
2018-07-09T19:34:24.227Z,2.20
2018-07-09T19:39:17.044Z,2.58
2018-07-09T19:44:09.867Z,2.33
2018-07-09T19:49:02.713Z,2.35
2018-07-09T19:53:55.527Z,2.60
2018-07-09T19:58:48.359Z,2.52
2018-07-09T20:03:41.159Z,3.00
2018-07-09T20:08:39.196Z,2.80
2018-07-09T20:14:01.884Z,2.37
2018-07-09T20:18:54.704Z,2.40
2018-07-09T20:23:48.542Z,2.60
2018-07-09T20:28:41.356Z,2.70
2018-07-09T20:33:34.161Z,2.62
2018-07-09T20:38:26.979Z,2.52
2018-07-09T20:43:19.791Z,2.65
2018-07-09T20:48:12.611Z,2.70
2018-07-09T20:53:05.417Z,2.85
2018-07-09T20:57:58.223Z,2.52
2018-07-09T21:02:51.029Z,2.98
2018-07-09T21:07:43.864Z,3.00
2018-07-09T21:12:41.995Z,2.98
2018-07-09T21:17:34.847Z,3.10
2018-07-09T21:22:27.682Z,3.30
2018-07-09T21:27:20.752Z,3.45
2018-07-09T21:32:13.572Z,2.95
2018-07-09T21:37:06.405Z,3.50
2018-07-09T21:41:59.220Z,2.90
2018-07-09T21:46:52.015Z,2.87
2018-07-09T21:51:44.831Z,2.90
2018-07-09T21:56:37.645Z,2.80
2018-07-09T22:01:30.452Z,2.62
2018-07-09T22:06:23.299Z,2.45
2018-07-09T22:11:16.112Z,2.30
2018-07-09T22:16:08.923Z,2.10
2018-07-09T22:21:01.735Z,2.17
2018-07-09T22:25:54.533Z,2.40
2018-07-09T22:30:49.212Z,2.20
2018-07-09T22:35:43.850Z,1.87
2018-07-09T22:40:38.483Z,1.98
2018-07-09T22:45:33.141Z,2.05
2018-07-09T22:50:27.847Z,2.30
2018-07-09T22:56:07.816Z,2.17
2018-07-09T23:01:03.042Z,2.20
2018-07-09T23:05:57.797Z,2.10
2018-07-09T23:13:36.583Z,2.15
2018-07-09T23:18:59.725Z,2.27
2018-07-09T23:23:52.536Z,2.20
2018-07-09T23:28:45.354Z,2.17
2018-07-09T23:33:38.163Z,2.17
2018-07-09T23:38:30.970Z,2.30
2018-07-09T23:43:24.067Z,2.00
2018-07-09T23:48:16.880Z,2.27
2018-07-09T23:53:09.722Z,2.00
2018-07-09T23:58:20.887Z,2.30
